Time;durP1;ratioP1;P1;durP2;ratioP2;P2;SDS_P1;SDS_P2;PMS_P1;PMS_P2;Temp;Humidity;BMP_temperature;BMP_pressure;BME280_temperature;BME280_humidity;BME280_pressure;Samples;Min_cycle;Max_cycle;Signal;HPM_P1;HPM_P2
2022/06/22 00:01:27;;;;;;;9.10;7.07;;;23.40;73.00;;;;;;4993205;28;20565;-75
2022/06/22 00:03:57;;;;;;;11.03;7.87;;;23.40;73.20;;;;;;5009109;28;20810;-76
2022/06/22 00:06:42;;;;;;;12.70;8.23;;;23.40;73.20;;;;;;5008718;28;20412;-75
2022/06/22 00:09:25;;;;;;;9.33;7.47;;;23.50;73.20;;;;;;5006115;28;20431;-76
2022/06/22 00:11:51;;;;;;;15.33;8.60;;;23.50;73.30;;;;;;5006085;28;20483;-76
2022/06/22 00:14:20;;;;;;;11.20;7.30;;;23.40;73.30;;;;;;5009562;28;20432;-76
2022/06/22 00:16:55;;;;;;;9.80;8.20;;;23.40;73.60;;;;;;4992095;28;20448;-76
2022/06/22 00:19:41;;;;;;;10.13;7.20;;;23.50;73.60;;;;;;4990314;28;20485;-76
2022/06/22 00:22:24;;;;;;;11.93;8.43;;;23.40;73.60;;;;;;5060181;28;20430;-74
2022/06/22 00:25:10;;;;;;;9.90;7.17;;;23.40;73.70;;;;;;5083321;28;20419;-78
2022/06/22 00:27:36;;;;;;;12.30;7.67;;;23.30;74.00;;;;;;5088488;28;20417;-76
2022/06/22 00:30:16;;;;;;;11.37;8.87;;;23.30;74.20;;;;;;5083201;28;20516;-77
2022/06/22 00:32:58;;;;;;;9.63;7.57;;;23.20;74.30;;;;;;5078403;28;20406;-76
2022/06/22 00:35:55;;;;;;;13.03;9.30;;;23.20;74.50;;;;;;5087125;28;20416;-74
2022/06/22 00:38:27;;;;;;;9.70;7.83;;;23.10;74.80;;;;;;5061897;28;20454;-76
2022/06/22 00:40:58;;;;;;;10.07;7.60;;;23.00;75.20;;;;;;5082063;28;20569;-75
2022/06/22 00:43:31;;;;;;;12.10;8.60;;;23.10;75.40;;;;;;5083207;28;20445;-75
2022/06/22 00:45:58;;;;;;;12.00;9.00;;;23.10;75.40;;;;;;5083084;28;20514;-75
2022/06/22 00:48:36;;;;;;;10.73;9.10;;;23.10;75.40;;;;;;5090369;28;20403;-76
2022/06/22 00:51:08;;;;;;;10.33;8.90;;;22.90;75.90;;;;;;5077699;28;20488;-75
2022/06/22 00:54:02;;;;;;;12.07;8.57;;;22.70;77.00;;;;;;5085812;28;20430;-74
2022/06/22 00:56:37;;;;;;;11.80;9.50;;;22.60;77.70;;;;;;5076255;28;20521;-76
2022/06/22 00:59:05;;;;;;;13.30;9.90;;;22.70;77.60;;;;;;5084369;28;20502;-74
2022/06/22 01:01:36;;;;;;;12.93;9.00;;;22.60;78.00;;;;;;5079694;28;20432;-76
2022/06/22 01:04:11;;;;;;;12.90;9.70;;;22.60;78.10;;;;;;5090936;28;20511;-76
2022/06/22 01:07:05;;;;;;;13.93;10.40;;;22.60;78.40;;;;;;5088698;28;20843;-76
2022/06/22 01:09:33;;;;;;;13.90;10.40;;;22.70;78.10;;;;;;5083546;28;20975;-76
2022/06/22 01:12:23;;;;;;;12.10;9.03;;;22.60;78.60;;;;;;5099294;28;20425;-75
2022/06/22 01:15:02;;;;;;;12.83;9.60;;;22.50;79.20;;;;;;5048156;28;20492;-77
2022/06/22 01:17:48;;;;;;;15.27;10.87;;;22.60;79.30;;;;;;5078799;28;20499;-75
2022/06/22 01:20:42;;;;;;;12.87;10.30;;;22.70;78.90;;;;;;5081120;28;20499;-76
2022/06/22 01:23:14;;;;;;;16.30;10.60;;;22.80;78.30;;;;;;5088810;28;20421;-76
2022/06/22 01:25:49;;;;;;;14.40;9.87;;;22.80;78.60;;;;;;5090264;28;20453;-76
2022/06/22 01:28:15;;;;;;;14.57;9.93;;;22.80;78.60;;;;;;5088162;28;20444;-76
2022/06/22 01:30:43;;;;;;;12.33;9.93;;;22.80;78.90;;;;;;5090962;28;20455;-75
2022/06/22 01:33:26;;;;;;;12.70;9.50;;;22.80;78.90;;;;;;5093171;28;20196;-75
2022/06/22 01:35:56;;;;;;;11.40;9.20;;;22.80;78.60;;;;;;5109368;28;20410;-74
2022/06/22 01:38:28;;;;;;;17.33;9.90;;;22.90;78.70;;;;;;5104194;28;20417;-75
2022/06/22 01:41:25;;;;;;;11.47;9.13;;;22.90;78.40;;;;;;5122920;27;20552;-76
2022/06/22 01:44:00;;;;;;;15.80;10.00;;;23.00;78.30;;;;;;5088281;28;20459;-76
2022/06/22 01:46:52;;;;;;;16.53;10.10;;;22.90;78.60;;;;;;5091108;28;20419;-75
2022/06/22 01:49:48;;;;;;;17.03;10.20;;;22.90;78.60;;;;;;5082657;28;20446;-74
2022/06/22 01:52:35;;;;;;;13.73;9.47;;;22.90;78.60;;;;;;5083430;28;20412;-76
2022/06/22 01:55:17;;;;;;;12.00;9.07;;;22.80;78.70;;;;;;5088392;28;20500;-75
2022/06/22 01:57:55;;;;;;;14.30;10.13;;;22.70;79.20;;;;;;5088994;28;20422;-74
2022/06/22 02:00:21;;;;;;;14.60;9.80;;;22.70;79.60;;;;;;5087147;28;20885;-75
2022/06/22 02:02:55;;;;;;;12.03;10.10;;;22.80;79.50;;;;;;5089228;28;20425;-75
2022/06/22 02:05:38;;;;;;;12.17;9.93;;;22.60;79.70;;;;;;5090919;28;20440;-77
2022/06/22 02:08:08;;;;;;;14.40;10.63;;;22.50;80.30;;;;;;5087883;28;20416;-76
2022/06/22 02:10:52;;;;;;;12.20;9.80;;;22.60;80.20;;;;;;5075723;28;20470;-75
2022/06/22 02:13:29;;;;;;;16.23;10.23;;;22.60;80.20;;;;;;5081090;28;20478;-76
2022/06/22 02:16:00;;;;;;;12.53;9.70;;;22.60;80.20;;;;;;5086118;28;20463;-75
2022/06/22 02:18:34;;;;;;;11.10;9.47;;;22.60;80.30;;;;;;5081125;28;20500;-76
2022/06/22 02:21:15;;;;;;;12.93;9.50;;;22.70;80.20;;;;;;5085386;28;20476;-76
2022/06/22 02:23:42;;;;;;;13.90;9.80;;;22.70;79.90;;;;;;5090063;28;20428;-76
2022/06/22 02:26:20;;;;;;;12.23;10.20;;;22.50;80.30;;;;;;5086646;28;20424;-73
2022/06/22 02:28:47;;;;;;;17.00;9.90;;;22.60;80.00;;;;;;5095145;28;20434;-74
2022/06/22 02:31:14;;;;;;;12.37;10.57;;;22.60;80.00;;;;;;5086451;28;20971;-75
2022/06/22 02:33:42;;;;;;;11.90;9.33;;;22.60;80.30;;;;;;5100141;28;20456;-73
2022/06/22 02:36:10;;;;;;;12.10;9.23;;;22.70;80.20;;;;;;5099550;28;20437;-75
2022/06/22 02:38:37;;;;;;;14.47;9.53;;;22.80;79.60;;;;;;5098513;28;20427;-76
2022/06/22 02:46:37;;;;;;;13.97;10.40;;;22.60;81.10;;;;;;5099136;28;20399;-74
2022/06/22 02:49:10;;;;;;;14.20;10.70;;;22.40;81.90;;;;;;5090512;28;20414;-75
2022/06/22 02:51:44;;;;;;;13.03;10.10;;;22.40;82.10;;;;;;5097233;28;20579;-74
2022/06/22 02:54:39;;;;;;;14.47;10.83;;;22.40;82.40;;;;;;5096750;28;20413;-75
2022/06/22 02:57:11;;;;;;;14.93;9.97;;;22.30;83.30;;;;;;5093069;28;20427;-75
2022/06/22 02:59:38;;;;;;;14.00;10.20;;;22.30;83.40;;;;;;5091597;28;20839;-74
2022/06/22 03:02:05;;;;;;;13.97;10.63;;;22.40;84.30;;;;;;5091440;28;20444;-75
2022/06/22 03:04:31;;;;;;;16.73;12.10;;;22.50;83.80;;;;;;5091825;28;20429;-76
2022/06/22 03:06:57;;;;;;;14.70;10.97;;;22.30;83.80;;;;;;5089232;28;20427;-73
2022/06/22 03:09:26;;;;;;;17.87;10.67;;;22.30;84.30;;;;;;5086447;28;20487;-75
2022/06/22 03:11:55;;;;;;;15.47;10.63;;;22.40;84.10;;;;;;5092572;28;20190;-76
2022/06/22 03:14:24;;;;;;;16.13;11.77;;;22.50;84.00;;;;;;5094141;28;20827;-73
2022/06/22 03:16:55;;;;;;;17.47;11.40;;;22.40;83.80;;;;;;5088584;28;20929;-74
2022/06/22 03:19:33;;;;;;;13.30;10.67;;;22.30;84.00;;;;;;5093755;28;21443;-78
2022/06/22 03:21:59;;;;;;;16.20;10.73;;;22.30;83.80;;;;;;5092072;28;20486;-77
2022/06/22 03:24:55;;;;;;;17.37;10.73;;;22.30;84.40;;;;;;5089085;28;20450;-75
2022/06/22 03:27:27;;;;;;;18.80;11.17;;;22.30;84.30;;;;;;5039798;28;20445;-76
2022/06/22 03:29:57;;;;;;;15.17;9.80;;;22.30;84.30;;;;;;5042314;28;20558;-78
2022/06/22 03:32:34;;;;;;;14.70;11.03;;;22.30;84.40;;;;;;5050176;28;20560;-77
2022/06/22 03:35:12;;;;;;;14.33;11.07;;;22.20;84.60;;;;;;5034511;28;20856;-76
2022/06/22 03:38:01;;;;;;;15.93;12.00;;;22.20;84.40;;;;;;5046027;28;20438;-76
2022/06/22 03:40:40;;;;;;;16.10;11.20;;;22.20;84.30;;;;;;5040730;28;20493;-74
2022/06/22 03:43:21;;;;;;;13.70;11.37;;;22.20;84.60;;;;;;5033872;28;20833;-75
2022/06/22 03:45:51;;;;;;;17.30;11.70;;;22.10;84.70;;;;;;5051079;28;20478;-75
2022/06/22 03:48:32;;;;;;;15.80;11.87;;;22.00;85.20;;;;;;5048569;28;20445;-75
2022/06/22 03:51:12;;;;;;;16.83;11.17;;;22.00;85.30;;;;;;5049654;28;20473;-77
2022/06/22 03:53:41;;;;;;;15.80;11.23;;;21.90;85.60;;;;;;5052871;28;20421;-76
2022/06/22 03:56:14;;;;;;;16.63;12.03;;;21.90;85.70;;;;;;5051810;28;20434;-75
2022/06/22 03:58:42;;;;;;;14.93;11.33;;;21.90;85.60;;;;;;5052566;28;20513;-75
2022/06/22 04:01:10;;;;;;;13.90;11.10;;;21.90;85.90;;;;;;5034771;28;20485;-75
2022/06/22 04:03:37;;;;;;;15.90;11.27;;;21.90;85.00;;;;;;5069230;28;20431;-78
2022/06/22 04:06:03;;;;;;;15.17;11.43;;;21.90;85.00;;;;;;5086767;28;20566;-76
2022/06/22 04:08:33;;;;;;;16.63;11.87;;;21.80;85.30;;;;;;5083206;28;20971;-75
2022/06/22 04:11:14;;;;;;;14.00;11.03;;;21.80;85.60;;;;;;5080965;28;20462;-78
2022/06/22 04:14:06;;;;;;;13.90;11.20;;;21.80;85.60;;;;;;5087983;28;20430;-76
2022/06/22 04:16:37;;;;;;;16.40;11.83;;;21.80;85.30;;;;;;5085123;28;20845;-76
2022/06/22 04:19:20;;;;;;;14.47;11.50;;;21.60;85.60;;;;;;5087163;28;20440;-74
2022/06/22 04:21:50;;;;;;;17.80;12.47;;;21.60;85.90;;;;;;5083210;28;20485;-74
2022/06/22 04:24:29;;;;;;;20.40;12.70;;;21.70;85.60;;;;;;5080310;28;20519;-79
2022/06/22 04:27:03;;;;;;;14.60;12.00;;;21.80;85.20;;;;;;5085567;28;20476;-75
2022/06/22 04:29:55;;;;;;;15.10;11.60;;;21.90;84.90;;;;;;5078490;28;20864;-77
2022/06/22 04:32:33;;;;;;;13.93;10.80;;;22.00;84.60;;;;;;5089554;28;20475;-74
2022/06/22 04:35:01;;;;;;;14.80;11.50;;;22.10;84.60;;;;;;5083316;28;20448;-77
2022/06/22 04:37:41;;;;;;;14.37;11.20;;;22.20;84.60;;;;;;5094629;28;20493;-77
2022/06/22 04:40:17;;;;;;;20.93;13.17;;;22.30;84.40;;;;;;5099806;28;20472;-77
2022/06/22 04:42:43;;;;;;;14.83;10.43;;;22.40;84.00;;;;;;5094149;28;20423;-77
2022/06/22 04:45:30;;;;;;;18.13;13.97;;;22.40;83.80;;;;;;5093961;28;20420;-77
2022/06/22 04:48:04;;;;;;;16.80;11.37;;;22.40;84.00;;;;;;5093938;28;20466;-79
2022/06/22 04:50:30;;;;;;;16.20;10.97;;;22.50;83.40;;;;;;5081352;28;20467;-79
2022/06/22 04:52:59;;;;;;;14.33;10.13;;;22.70;83.10;;;;;;5095550;28;20414;-78
2022/06/22 04:55:26;;;;;;;15.00;10.37;;;22.70;82.80;;;;;;5088816;28;20511;-77
2022/06/22 04:57:57;;;;;;;17.83;10.50;;;22.80;81.80;;;;;;5087844;28;20428;-74
2022/06/22 05:00:28;;;;;;;15.27;12.10;;;22.80;81.40;;;;;;5078565;28;20472;-75
2022/06/22 05:03:01;;;;;;;18.43;12.03;;;22.80;80.80;;;;;;5090061;28;20423;-78
2022/06/22 05:05:30;;;;;;;21.30;11.90;;;22.60;79.30;;;;;;5087630;28;20434;-74
2022/06/22 05:08:03;;;;;;;16.63;11.67;;;22.50;80.00;;;;;;5095369;28;20412;-76
2022/06/22 05:10:43;;;;;;;15.50;11.07;;;22.50;80.20;;;;;;5086887;28;20459;-75
2022/06/22 05:13:15;;;;;;;18.50;11.97;;;22.50;80.30;;;;;;5083926;28;20428;-75
2022/06/22 05:15:44;;;;;;;14.80;11.73;;;22.50;80.60;;;;;;5085183;28;20463;-76
2022/06/22 05:18:23;;;;;;;21.17;13.00;;;22.50;80.90;;;;;;5081101;28;20931;-74
2022/06/22 05:20:56;;;;;;;16.00;12.90;;;22.50;80.20;;;;;;5082151;28;20475;-77
2022/06/22 05:23:26;;;;;;;18.10;12.67;;;22.40;80.00;;;;;;5081572;28;20452;-76
2022/06/22 05:25:54;;;;;;;26.33;13.10;;;22.50;80.00;;;;;;5098668;28;20544;-74
2022/06/22 05:28:49;;;;;;;16.33;12.00;;;22.50;79.60;;;;;;5109488;28;20421;-75
2022/06/22 05:31:49;;;;;;;21.53;12.20;;;22.50;79.30;;;;;;5082807;28;20463;-75
2022/06/22 05:34:38;;;;;;;24.13;14.20;;;22.50;79.70;;;;;;5028768;28;20425;-77
2022/06/22 05:37:10;;;;;;;18.80;12.00;;;22.90;79.00;;;;;;5027758;28;20421;-76
2022/06/22 05:39:36;;;;;;;18.50;13.20;;;23.10;78.00;;;;;;5042708;28;20468;-75
2022/06/22 05:42:03;;;;;;;18.53;12.40;;;23.00;77.60;;;;;;5028142;28;20632;-75
2022/06/22 05:44:30;;;;;;;16.77;11.80;;;23.10;77.30;;;;;;5025652;28;20428;-75
2022/06/22 05:46:59;;;;;;;21.60;13.30;;;23.20;77.10;;;;;;5031364;28;20430;-75
2022/06/22 05:49:37;;;;;;;15.70;11.23;;;22.90;77.30;;;;;;5028671;28;20572;-75
2022/06/22 05:52:14;;;;;;;18.67;12.20;;;22.90;78.10;;;;;;5030046;28;20430;-76
2022/06/22 05:54:40;;;;;;;17.80;12.60;;;23.20;77.80;;;;;;5031081;28;20781;-76
2022/06/22 05:57:26;;;;;;;18.77;12.00;;;23.30;77.40;;;;;;5012980;28;20426;-76
2022/06/22 06:00:01;;;;;;;15.57;11.20;;;23.30;77.60;;;;;;5034686;28;20478;-75
2022/06/22 06:02:37;;;;;;;17.37;12.27;;;23.40;77.00;;;;;;5031833;28;20453;-74
2022/06/22 06:05:22;;;;;;;17.37;11.67;;;23.40;77.00;;;;;;5028269;28;20502;-76
2022/06/22 06:07:55;;;;;;;15.90;12.30;;;23.50;77.00;;;;;;5028376;28;20463;-76
2022/06/22 06:10:25;;;;;;;18.60;11.87;;;23.70;76.40;;;;;;5048631;28;20466;-76
2022/06/22 06:13:25;;;;;;;15.20;11.27;;;23.60;74.90;;;;;;5085199;28;20839;-75
2022/06/22 06:15:56;;;;;;;14.27;11.20;;;23.60;75.10;;;;;;5084825;28;20445;-77
2022/06/22 06:18:44;;;;;;;17.83;12.30;;;23.30;75.80;;;;;;5086538;28;20421;-77
2022/06/22 06:21:17;;;;;;;17.20;12.50;;;23.40;75.90;;;;;;5073909;28;20477;-76
2022/06/22 06:23:49;;;;;;;13.17;10.80;;;23.40;75.90;;;;;;5086595;28;20478;-76
2022/06/22 06:29:18;;;;;;;14.23;11.17;;;23.50;75.90;;;;;;5076532;28;20403;-76
2022/06/22 06:32:15;;;;;;;14.80;10.67;;;23.40;76.20;;;;;;5080276;28;20422;-74
2022/06/22 06:34:51;;;;;;;15.60;11.27;;;23.60;75.40;;;;;;5085594;28;20506;-76
2022/06/22 06:37:28;;;;;;;16.93;12.30;;;23.60;75.70;;;;;;5080575;28;20904;-77
2022/06/22 06:39:56;;;;;;;19.60;11.33;;;23.60;76.10;;;;;;5077505;28;20479;-76
2022/06/22 06:42:34;;;;;;;15.63;11.40;;;23.60;75.90;;;;;;5078128;28;20898;-75
2022/06/22 06:45:02;;;;;;;18.40;11.70;;;23.70;75.80;;;;;;5083242;28;20813;-75
2022/06/22 06:47:34;;;;;;;14.47;10.70;;;23.80;75.50;;;;;;5090085;28;20427;-76
2022/06/22 06:50:06;;;;;;;17.83;11.57;;;23.90;75.40;;;;;;5089013;28;20477;-77
2022/06/22 06:52:33;;;;;;;13.97;11.10;;;23.80;75.40;;;;;;5086801;28;20921;-75
2022/06/22 06:55:08;;;;;;;14.57;11.03;;;23.70;75.70;;;;;;5091786;28;20454;-77
2022/06/22 06:57:36;;;;;;;16.13;10.90;;;23.80;75.90;;;;;;5095842;28;20463;-77
2022/06/22 07:00:06;;;;;;;16.03;11.40;;;23.80;75.10;;;;;;5080881;28;20481;-76
2022/06/22 07:02:36;;;;;;;16.53;11.20;;;23.60;76.40;;;;;;5092114;28;20844;-76
2022/06/22 07:05:07;;;;;;;14.40;10.57;;;23.50;77.10;;;;;;5083372;28;20511;-75
2022/06/22 07:07:56;;;;;;;19.17;10.40;;;23.40;77.40;;;;;;5089491;28;21476;-75
2022/06/22 07:10:30;;;;;;;19.47;11.57;;;23.10;75.90;;;;;;5113079;27;20471;-76
2022/06/22 07:13:10;;;;;;;15.17;11.90;;;23.00;77.60;;;;;;5094777;28;20518;-76
2022/06/22 07:15:40;;;;;;;18.57;12.23;;;22.60;77.60;;;;;;5091744;28;20451;-76
2022/06/22 07:18:12;;;;;;;21.80;11.70;;;22.30;79.00;;;;;;5086540;28;20550;-77
2022/06/22 07:20:43;;;;;;;15.57;11.53;;;22.30;79.50;;;;;;5089763;28;20973;-76
2022/06/22 07:23:20;;;;;;;23.23;12.73;;;22.30;79.00;;;;;;5089204;28;20787;-77
2022/06/22 07:25:54;;;;;;;17.83;10.97;;;22.40;79.20;;;;;;5089248;28;20489;-76
2022/06/22 07:28:41;;;;;;;15.60;11.53;;;22.50;79.90;;;;;;5093413;28;20420;-75
2022/06/22 07:31:20;;;;;;;17.80;11.80;;;22.60;79.00;;;;;;5082230;28;20598;-76
2022/06/22 07:33:51;;;;;;;18.23;12.10;;;22.60;77.80;;;;;;5091230;28;20918;-77
2022/06/22 07:36:21;;;;;;;17.33;11.90;;;22.50;78.70;;;;;;5088186;28;20428;-75
2022/06/22 07:38:53;;;;;;;16.07;12.50;;;22.50;80.60;;;;;;5092470;28;20589;-76
2022/06/22 07:41:22;;;;;;;20.03;13.37;;;22.40;80.90;;;;;;5087450;28;20518;-75
2022/06/22 07:44:01;;;;;;;18.20;11.70;;;22.30;80.80;;;;;;5091584;28;20433;-75
2022/06/22 07:46:44;;;;;;;17.73;11.70;;;22.20;80.30;;;;;;5089094;28;20519;-76
2022/06/22 07:49:52;;;;;;;16.33;10.27;;;22.30;81.50;;;;;;5092451;28;20416;-75
2022/06/22 07:52:23;;;;;;;21.47;13.20;;;22.50;81.10;;;;;;5023264;28;20460;-76
2022/06/22 07:55:20;;;;;;;18.93;13.03;;;22.60;81.10;;;;;;5029052;28;20431;-76
2022/06/22 07:58:11;;;;;;;20.13;13.00;;;22.60;80.20;;;;;;5031154;28;20843;-76
2022/06/22 08:00:40;;;;;;;17.03;12.70;;;22.60;80.30;;;;;;5023005;28;21003;-76
2022/06/22 08:03:28;;;;;;;17.83;11.17;;;22.70;80.30;;;;;;5028606;28;20467;-77
2022/06/22 08:05:59;;;;;;;18.50;11.33;;;22.80;79.70;;;;;;5021338;28;20427;-79
2022/06/22 08:08:35;;;;;;;17.70;11.43;;;23.00;78.70;;;;;;5008102;28;20431;-75
2022/06/22 08:11:33;;;;;;;17.30;10.50;;;23.10;77.80;;;;;;5023309;28;20498;-77
2022/06/22 08:14:08;;;;;;;17.67;10.70;;;23.30;77.60;;;;;;4978398;28;20592;-76
2022/06/22 08:16:40;;;;;;;16.33;11.07;;;23.50;76.50;;;;;;4973869;28;20560;-76
2022/06/22 08:19:06;;;;;;;14.57;9.73;;;23.70;75.80;;;;;;4974608;28;20987;-74
2022/06/22 08:21:38;;;;;;;20.57;11.67;;;23.80;75.20;;;;;;4963797;28;20996;-78
2022/06/22 08:24:06;;;;;;;17.63;11.00;;;23.90;75.20;;;;;;4964244;28;20443;-78
2022/06/22 08:26:32;;;;;;;19.00;10.60;;;24.00;75.20;;;;;;5011153;28;20487;-78
2022/06/22 08:28:59;;;;;;;13.50;10.10;;;24.00;75.10;;;;;;5038125;28;20485;-76
2022/06/22 08:31:37;;;;;;;16.70;10.53;;;24.00;74.50;;;;;;5024566;28;20453;-77
2022/06/22 08:34:08;;;;;;;17.10;10.97;;;24.10;74.50;;;;;;5031611;28;20427;-79
2022/06/22 08:36:47;;;;;;;17.13;11.50;;;24.10;74.30;;;;;;5058651;28;20482;-75
2022/06/22 08:39:23;;;;;;;14.57;11.20;;;24.00;72.10;;;;;;5029458;28;20427;-76
2022/06/22 08:41:57;;;;;;;16.47;11.43;;;23.90;72.90;;;;;;5044261;28;20449;-75
2022/06/22 08:44:26;;;;;;;16.97;10.97;;;23.90;73.20;;;;;;5031975;28;20428;-76
2022/06/22 08:47:18;;;;;;;19.07;11.63;;;23.90;73.20;;;;;;5019736;28;20434;-75
2022/06/22 08:50:03;;;;;;;17.90;11.43;;;23.80;73.00;;;;;;5048981;28;20536;-76
2022/06/22 08:53:00;;;;;;;16.87;10.87;;;23.70;73.70;;;;;;5077050;28;20427;-75
2022/06/22 08:55:53;;;;;;;20.47;11.43;;;23.50;74.20;;;;;;5082630;28;20419;-76
2022/06/22 08:58:30;;;;;;;19.67;12.20;;;23.40;74.80;;;;;;5086251;28;20459;-74
2022/06/22 09:01:19;;;;;;;18.80;12.97;;;23.50;75.10;;;;;;5086817;28;20485;-75
2022/06/22 09:03:47;;;;;;;19.23;12.33;;;23.40;75.20;;;;;;5088447;28;20468;-76
2022/06/22 09:06:36;;;;;;;19.47;12.13;;;23.40;75.50;;;;;;5088575;28;20912;-75
2022/06/22 09:09:18;;;;;;;16.77;11.73;;;23.30;76.20;;;;;;5094007;28;20470;-75
2022/06/22 09:12:13;;;;;;;18.20;13.07;;;23.30;76.70;;;;;;5089887;28;20445;-74
2022/06/22 09:14:51;;;;;;;17.07;12.33;;;23.40;77.40;;;;;;5106158;28;20456;-76
2022/06/22 09:17:23;;;;;;;19.93;11.97;;;23.30;77.80;;;;;;5106376;28;20418;-77
2022/06/22 09:20:26;;;;;;;17.03;11.73;;;23.30;77.40;;;;;;5084172;28;20480;-75
2022/06/22 09:22:52;;;;;;;21.30;11.67;;;23.40;77.00;;;;;;5083809;28;20977;-76
2022/06/22 09:25:35;;;;;;;20.20;13.00;;;23.40;76.50;;;;;;5088429;28;20448;-76
2022/06/22 09:28:11;;;;;;;18.83;11.97;;;23.40;76.20;;;;;;5086095;28;20188;-75
2022/06/22 09:30:57;;;;;;;22.43;12.20;;;23.40;76.70;;;;;;5084773;28;20475;-76
2022/06/22 09:33:47;;;;;;;16.30;11.47;;;23.40;76.20;;;;;;5085252;28;20412;-76
2022/06/22 09:36:24;;;;;;;18.40;12.33;;;23.60;75.10;;;;;;5087179;28;20431;-75
2022/06/22 09:39:13;;;;;;;17.33;11.90;;;23.50;75.90;;;;;;5088519;28;20790;-76
2022/06/22 09:41:45;;;;;;;16.43;12.30;;;23.60;75.10;;;;;;5081384;28;21090;-76
2022/06/22 09:44:55;;;;;;;16.83;11.83;;;23.60;73.90;;;;;;5088603;28;20526;-74
2022/06/22 09:47:30;;;;;;;18.13;12.13;;;23.70;74.50;;;;;;5084983;28;20456;-76
2022/06/22 09:50:11;;;;;;;18.73;12.03;;;23.70;74.80;;;;;;5086734;28;20466;-75
2022/06/22 09:52:39;;;;;;;21.73;12.50;;;23.90;74.80;;;;;;5081480;28;20476;-77
2022/06/22 09:58:50;;;;;;;19.40;11.27;;;23.60;72.00;;;;;;5077277;28;20398;-75
2022/06/22 10:01:24;;;;;;;17.20;12.30;;;23.70;72.30;;;;;;5082422;28;20479;-75
2022/06/22 10:03:59;;;;;;;17.83;12.20;;;23.60;72.40;;;;;;5086577;28;20426;-75
2022/06/22 10:06:31;;;;;;;18.70;13.17;;;23.40;74.00;;;;;;5082123;28;20411;-75
2022/06/22 10:08:57;;;;;;;16.37;12.20;;;23.30;73.30;;;;;;5089589;28;20416;-76
2022/06/22 10:11:52;;;;;;;15.60;10.77;;;23.30;74.30;;;;;;5077920;28;20471;-76
2022/06/22 10:14:45;;;;;;;17.10;11.57;;;23.20;71.80;;;;;;5092776;28;20180;-77
2022/06/22 10:17:32;;;;;;;19.50;12.17;;;23.00;74.90;;;;;;5094569;28;20433;-77
2022/06/22 10:20:30;;;;;;;15.60;10.63;;;23.30;74.20;;;;;;5082314;28;20502;-76
2022/06/22 10:23:13;;;;;;;20.10;11.87;;;23.60;73.70;;;;;;5063056;28;20427;-77
2022/06/22 10:26:01;;;;;;;19.20;11.27;;;23.80;73.60;;;;;;5089502;28;20648;-78
2022/06/22 10:28:30;;;;;;;17.10;12.60;;;24.00;72.70;;;;;;5090778;28;20434;-78
2022/06/22 10:31:37;;;;;;;23.90;12.40;;;24.00;72.90;;;;;;5082552;28;20455;-77
2022/06/22 10:34:39;;;;;;;21.10;12.80;;;23.90;74.80;;;;;;5096639;28;20426;-78
2022/06/22 10:37:43;;;;;;;20.43;12.60;;;23.70;77.40;;;;;;5095521;28;20803;-77
2022/06/22 10:46:38;;;;;;;27.97;15.63;;;23.70;81.10;;;;;;5096670;28;20424;-78
2022/06/22 10:49:35;;;;;;;21.77;13.90;;;23.50;82.80;;;;;;5095525;28;20924;-76
2022/06/22 10:52:15;;;;;;;24.73;13.67;;;23.20;84.40;;;;;;5092466;28;20444;-77
2022/06/22 10:54:57;;;;;;;19.03;13.97;;;22.90;85.90;;;;;;5095953;28;20430;-78
2022/06/22 10:57:35;;;;;;;18.03;11.87;;;22.60;86.30;;;;;;5095774;28;20540;-78
2022/06/22 11:00:10;;;;;;;20.43;10.83;;;22.20;86.00;;;;;;5085349;28;21263;-79
2022/06/22 11:02:54;;;;;;;14.63;10.70;;;21.90;86.50;;;;;;5101447;28;20467;-77
2022/06/22 11:05:47;;;;;;;16.10;11.20;;;21.90;87.40;;;;;;5111795;28;20427;-77
2022/06/22 11:08:38;;;;;;;13.27;9.77;;;21.90;86.60;;;;;;5097067;28;20464;-78
2022/06/22 11:11:36;;;;;;;17.00;10.80;;;21.90;87.40;;;;;;5088525;28;20459;-78
2022/06/22 11:14:40;;;;;;;17.20;12.13;;;22.10;87.40;;;;;;5092441;28;20426;-78
2022/06/22 11:17:12;;;;;;;15.00;11.27;;;22.30;86.00;;;;;;5081123;28;20437;-77
2022/06/22 11:19:38;;;;;;;17.60;10.77;;;22.50;85.90;;;;;;5078574;28;20456;-77
2022/06/22 11:22:28;;;;;;;17.00;10.30;;;22.60;85.70;;;;;;5088198;28;20568;-78
2022/06/22 11:30:48;;;;;;;14.87;9.40;;;22.80;85.60;;;;;;5102034;28;20707;-76
2022/06/22 11:31:33;;;;;;;22.13;13.90;;;22.90;84.30;;;;;;5075638;28;20866;-78
2022/06/22 11:34:53;;;;;;;15.90;9.33;;;23.10;84.70;;;;;;5050288;28;20557;-77
2022/06/22 11:37:57;;;;;;;19.63;11.80;;;23.10;84.10;;;;;;5019944;28;20445;-77
2022/06/22 11:40:38;;;;;;;17.60;9.57;;;23.20;82.80;;;;;;4968795;28;20487;-76
2022/06/22 11:43:25;;;;;;;16.87;10.00;;;23.30;80.90;;;;;;5018742;28;20432;-78
2022/06/22 11:46:22;;;;;;;18.50;13.07;;;23.20;79.30;;;;;;5015598;28;20439;-77
2022/06/22 11:48:56;;;;;;;16.30;11.20;;;23.20;79.30;;;;;;5018187;28;20917;-76
2022/06/22 11:51:28;;;;;;;16.23;11.27;;;22.90;81.10;;;;;;5021063;28;20462;-76
2022/06/22 11:53:53;;;;;;;15.30;11.13;;;22.90;81.40;;;;;;5029238;28;21238;-78
2022/06/22 11:56:56;;;;;;;21.03;12.33;;;22.90;81.90;;;;;;5028338;28;20482;-76
2022/06/22 11:59:27;;;;;;;19.13;11.40;;;22.80;82.20;;;;;;5023896;28;20213;-77
2022/06/22 12:02:17;;;;;;;20.23;12.27;;;22.90;82.50;;;;;;5025890;28;20547;-77
2022/06/22 12:04:59;;;;;;;20.57;11.70;;;22.90;83.00;;;;;;5026709;28;20421;-77
2022/06/22 12:08:08;;;;;;;20.47;11.83;;;23.00;83.70;;;;;;5026431;28;20428;-77
2022/06/22 12:10:41;;;;;;;15.30;11.53;;;23.00;83.60;;;;;;5036123;28;20557;-76
2022/06/22 12:13:28;;;;;;;20.97;13.40;;;23.10;83.80;;;;;;5043608;28;20437;-77
2022/06/22 12:16:07;;;;;;;23.90;12.50;;;23.10;83.60;;;;;;5046961;28;20462;-76
2022/06/22 12:19:10;;;;;;;16.90;12.87;;;23.20;84.00;;;;;;5046980;28;20560;-78
2022/06/22 12:21:47;;;;;;;21.13;12.60;;;23.30;83.70;;;;;;5044119;28;20479;-75
2022/06/22 12:24:39;;;;;;;15.93;11.50;;;23.50;83.70;;;;;;5058690;28;20561;-77
2022/06/22 12:27:20;;;;;;;16.83;11.73;;;23.80;84.30;;;;;;5015910;28;20432;-76
2022/06/22 12:29:58;;;;;;;18.60;12.80;;;24.10;83.40;;;;;;5039065;28;20468;-79
2022/06/22 12:32:36;;;;;;;16.43;11.20;;;23.90;81.90;;;;;;5053728;28;20428;-78
2022/06/22 12:35:36;;;;;;;12.03;7.73;;;23.90;81.70;;;;;;5038673;28;20433;-75
2022/06/22 12:38:13;;;;;;;18.17;6.53;;;23.60;78.70;;;;;;5052085;28;20476;-75
2022/06/22 12:40:57;;;;;;;12.30;5.97;;;23.10;79.60;;;;;;5039221;28;20499;-75
2022/06/22 12:43:29;;;;;;;13.23;6.57;;;23.00;79.60;;;;;;5054544;28;20440;-76
2022/06/22 12:45:59;;;;;;;13.70;7.20;;;22.90;80.80;;;;;;5056048;28;20788;-76
2022/06/22 12:48:54;;;;;;;17.37;6.97;;;22.90;81.20;;;;;;5087308;28;20444;-75
2022/06/22 12:51:46;;;;;;;12.97;6.97;;;22.90;80.90;;;;;;5109365;27;20476;-75
2022/06/22 12:54:28;;;;;;;17.90;6.30;;;22.90;81.90;;;;;;5085703;28;21174;-76
2022/06/22 12:57:02;;;;;;;15.13;6.90;;;23.00;81.50;;;;;;5088919;28;20446;-77
2022/06/22 12:59:34;;;;;;;15.20;6.57;;;23.20;81.70;;;;;;5088927;28;20547;-76
2022/06/22 13:02:06;;;;;;;13.50;6.80;;;23.10;81.20;;;;;;5092001;28;20494;-76
2022/06/22 13:04:36;;;;;;;17.23;7.03;;;23.00;81.80;;;;;;5090381;28;20455;-74
2022/06/22 13:07:15;;;;;;;17.53;6.73;;;23.00;82.50;;;;;;5090931;28;20455;-77
2022/06/22 13:09:42;;;;;;;17.13;6.87;;;23.00;83.30;;;;;;5080578;28;20502;-76
2022/06/22 13:12:37;;;;;;;12.57;6.90;;;23.00;82.80;;;;;;5086037;28;21022;-76
2022/06/22 13:15:26;;;;;;;17.70;7.10;;;23.10;83.30;;;;;;5088642;28;20444;-75
2022/06/22 13:18:18;;;;;;;14.13;6.77;;;23.10;83.80;;;;;;5072188;28;20433;-76
2022/06/22 13:20:57;;;;;;;20.40;7.97;;;23.10;83.60;;;;;;5078787;28;20551;-76
2022/06/22 13:23:46;;;;;;;15.13;7.50;;;23.10;84.30;;;;;;5083332;28;20419;-76
2022/06/22 13:26:23;;;;;;;14.83;7.50;;;23.10;84.00;;;;;;5079794;28;20437;-76
2022/06/22 13:29:07;;;;;;;13.00;6.83;;;23.00;84.90;;;;;;5091435;28;20489;-75
2022/06/22 13:31:39;;;;;;;12.97;6.93;;;22.80;84.00;;;;;;5086012;28;20447;-78
2022/06/22 13:34:09;;;;;;;17.90;7.23;;;22.80;84.60;;;;;;5089997;28;20440;-78
2022/06/22 13:36:46;;;;;;;15.90;6.33;;;22.90;84.30;;;;;;5091157;28;20428;-79
2022/06/22 13:39:33;;;;;;;12.57;6.90;;;22.90;83.40;;;;;;5086405;28;20429;-77
2022/06/22 13:42:24;;;;;;;21.63;8.20;;;23.10;84.00;;;;;;5089461;28;20423;-77
2022/06/22 13:45:15;;;;;;;17.87;7.70;;;23.30;84.00;;;;;;5088287;28;20779;-76
2022/06/22 13:48:02;;;;;;;20.27;7.23;;;23.60;84.00;;;;;;5087581;28;20415;-78
2022/06/22 13:53:59;;;;;;;21.30;7.67;;;23.90;82.40;;;;;;5097019;28;20420;-78